Iliamna, AK (99606)

4:53 PM AKDT on April 19, 2015 (GMT -0800)
Iliamna | | Change Station
CLOSE
Current Station
Airport
Location: Iliamna,
Elevation: 161 ft
Nearby Weather Stations

Elev 161 ft 59.75 °N, 154.91 °W | Updated 22 minutes ago

Light Snow
Light Snow Mist
35 °F
Feels Like 30 °F
N
6
Wind Variable Wind from SE

Today
High -- | Low -- °F
--% Chance of Precip.
Yesterday
High -- | Low -- °F
Precip. -- in
6:54 AM 9:47 PM
New Moon, 2% visible
Pressure 29.37 in
Visibility 4.0 miles
Clouds Overcast 1600 ft
Windchill 30 °F
Dew Point 34 °F
Humidity 96%
Rainfall 0.02 in
Snow Depth Not available.
UV 1 out of 12
Pollen Not available.
Air Quality Not available.
Flu Activity Sporadic
SPECI PAIL 200031Z 13005KT 4SM -SN BR OVC016 02/01 A2937 RMK AO2 WSHFT 2343 RAE07SNB2358PLB2359E07 CONDS LWR W-NW P0008 T00170011

More Conditions Fewer Conditions

Pressure 29.37 in
Visibility 4.0 miles
Clouds Overcast 1600 ft
Windchill 30 °F
Dew Point 34 °F
Humidity 96%
Rainfall 0.02 in
Snow Depth Not available.
UV 1 out of 12
Pollen Not available.
Air Quality Not available.
Flu Activity Sporadic
SPECI PAIL 200031Z 13005KT 4SM -SN BR OVC016 02/01 A2937 RMK AO2 WSHFT 2343 RAE07SNB2358PLB2359E07 CONDS LWR W-NW P0008 T00170011

More Conditions Fewer Conditions

10-Day Weather Forecast

Almanac

Astronomy

Apr. 19, 2015 Rise Set
Actual Time
Civil Twilight
Nautical Twilight
Astronomical Twilight
Moon
Length of Visible Light
Length of Day
Tomorrow will be .
, % of the Moon is Illuminated

Today's Extremes

State Highs State Lows

Community

WunderPhotos

Upload Photos

1,815,065 photos uploaded!

WunderBlogs® & News

Nearby

Air Quality

  Air Quality AQ Index Pollutant
Not available.

Snow Depth

Station Depth Elevation

Earthquake Activity

City Distance Mag. Time & Date
Minimum magnitude displayed is 2.5.

Coastal Water Temperatures

Place Temperature

Stations

Nearby Weather Stations

Station Location Temp. Windchill Dew Point Humidity Wind Precip. Elev Updated Type